Time;durP1;ratioP1;P1;durP2;ratioP2;P2;SDS_P1;SDS_P2;PMS_P1;PMS_P2;Temp;Humidity;BMP_temperature;BMP_pressure;BME280_temperature;BME280_humidity;BME280_pressure;Samples;Min_cycle;Max_cycle;Signal;HPM_P1;HPM_P2
2023/03/02 00:01:48;;;;;;;0.00;0.00;;;1.80;99.90;;;;;;5053840;28;20193;-72
2023/03/02 00:04:36;;;;;;;0.05;0.05;;;1.80;99.90;;;;;;5048482;28;20191;-72
2023/03/02 00:07:08;;;;;;;0.00;0.00;;;1.80;99.90;;;;;;5057885;28;20634;-72
2023/03/02 00:09:34;;;;;;;0.20;0.20;;;1.80;99.90;;;;;;5061028;28;20177;-73
2023/03/02 00:12:01;;;;;;;0.00;0.00;;;1.80;99.90;;;;;;5063046;28;20576;-73
2023/03/02 00:14:26;;;;;;;0.00;0.00;;;1.70;99.90;;;;;;5060318;28;20681;-72
2023/03/02 00:16:52;;;;;;;0.00;0.00;;;1.70;99.90;;;;;;5052977;28;20268;-73
2023/03/02 00:19:17;;;;;;;0.55;0.47;;;1.70;99.90;;;;;;5055148;28;20640;-73
2023/03/02 00:21:43;;;;;;;0.30;0.30;;;1.70;99.90;;;;;;5053993;28;20181;-70
2023/03/02 00:24:08;;;;;;;0.00;0.00;;;1.70;99.90;;;;;;5057975;28;20199;-70
2023/03/02 00:26:35;;;;;;;0.00;0.00;;;1.70;99.90;;;;;;5063503;28;20228;-70
2023/03/02 00:29:00;;;;;;;0.75;0.75;;;1.60;99.90;;;;;;5063938;28;20184;-70
2023/03/02 00:31:26;;;;;;;0.10;0.10;;;1.60;99.90;;;;;;5053452;28;20649;-69
2023/03/02 00:33:53;;;;;;;0.15;0.15;;;1.60;99.90;;;;;;5055715;28;20189;-70
2023/03/02 00:36:19;;;;;;;0.00;0.00;;;1.60;99.90;;;;;;5058396;28;20538;-70
2023/03/02 00:38:45;;;;;;;0.00;0.00;;;1.60;99.90;;;;;;5058717;28;20706;-70
2023/03/02 00:41:12;;;;;;;0.10;0.10;;;1.60;99.90;;;;;;5065452;28;20181;-70
2023/03/02 00:43:38;;;;;;;0.00;0.00;;;1.50;99.90;;;;;;5063258;28;20250;-71
2023/03/02 00:46:23;;;;;;;0.20;0.20;;;1.50;99.90;;;;;;5065822;28;20213;-70
2023/03/02 00:48:50;;;;;;;0.00;0.00;;;1.50;99.90;;;;;;5060571;28;20182;-70
2023/03/02 00:51:16;;;;;;;0.00;0.00;;;1.50;99.90;;;;;;5053177;28;20199;-71
2023/03/02 00:53:42;;;;;;;0.00;0.00;;;1.40;99.90;;;;;;5054732;28;20190;-71
2023/03/02 00:56:09;;;;;;;0.00;0.00;;;1.40;99.90;;;;;;5056327;28;20184;-71
2023/03/02 00:58:34;;;;;;;0.03;0.03;;;1.40;99.90;;;;;;5060057;28;20225;-71
2023/03/02 01:01:09;;;;;;;0.17;0.17;;;1.40;99.90;;;;;;5055672;28;20209;-71
2023/03/02 01:03:35;;;;;;;0.10;0.10;;;1.40;99.90;;;;;;5066234;28;20526;-71
2023/03/02 01:06:01;;;;;;;0.17;0.17;;;1.30;99.90;;;;;;5054282;28;20236;-72
2023/03/02 01:08:27;;;;;;;0.00;0.00;;;1.30;99.90;;;;;;5066695;28;20551;-71
2023/03/02 01:10:52;;;;;;;0.88;0.15;;;1.30;99.90;;;;;;5052626;28;20224;-72
2023/03/02 01:13:18;;;;;;;0.30;0.30;;;1.30;99.90;;;;;;5052631;28;20178;-72
2023/03/02 01:15:44;;;;;;;0.00;0.00;;;1.30;99.90;;;;;;5054533;28;20221;-71
2023/03/02 01:18:10;;;;;;;0.25;0.25;;;1.30;99.90;;;;;;5057724;28;20228;-72
2023/03/02 01:20:36;;;;;;;0.00;0.00;;;1.30;99.90;;;;;;5059848;28;20184;-72
2023/03/02 01:23:02;;;;;;;0.00;0.00;;;1.30;99.90;;;;;;5061112;28;20189;-72
2023/03/02 01:25:28;;;;;;;0.10;0.10;;;1.30;99.90;;;;;;5053662;28;20855;-71
2023/03/02 01:27:53;;;;;;;0.10;0.10;;;1.30;99.90;;;;;;5067113;28;20217;-72
2023/03/02 01:30:19;;;;;;;0.22;0.22;;;1.20;99.90;;;;;;5066686;28;20176;-72
2023/03/02 01:32:45;;;;;;;0.00;0.00;;;1.20;99.90;;;;;;5060070;28;20184;-72
2023/03/02 01:35:10;;;;;;;0.05;0.05;;;1.20;99.90;;;;;;5069310;28;20185;-72
2023/03/02 01:37:36;;;;;;;0.35;0.35;;;1.20;99.90;;;;;;5060532;28;20183;-71
2023/03/02 01:40:05;;;;;;;0.10;0.10;;;1.30;99.90;;;;;;5055165;28;20231;-72
2023/03/02 01:42:39;;;;;;;0.00;0.00;;;1.20;99.90;;;;;;5064883;28;20898;-72
2023/03/02 01:45:25;;;;;;;0.85;0.85;;;1.20;99.90;;;;;;5062456;28;20177;-72
2023/03/02 01:47:51;;;;;;;0.45;0.45;;;1.20;99.90;;;;;;5057026;28;20571;-72
2023/03/02 01:50:21;;;;;;;0.10;0.10;;;1.20;99.90;;;;;;5055761;28;20192;-71
2023/03/02 01:52:49;;;;;;;0.32;0.32;;;1.20;99.90;;;;;;5066265;28;20184;-71
2023/03/02 01:55:20;;;;;;;0.10;0.10;;;1.20;99.90;;;;;;5058931;28;20184;-72
2023/03/02 01:57:50;;;;;;;0.03;0.03;;;1.10;99.90;;;;;;5067984;28;20176;-72
2023/03/02 02:00:26;;;;;;;0.47;0.47;;;1.10;99.90;;;;;;5055001;28;20180;-72
2023/03/02 02:02:53;;;;;;;0.10;0.10;;;1.10;99.90;;;;;;5068599;28;20756;-72
2023/03/02 02:05:22;;;;;;;0.00;0.00;;;1.10;99.90;;;;;;5060087;28;20182;-72
2023/03/02 02:07:48;;;;;;;0.10;0.10;;;1.10;99.90;;;;;;5055596;28;20220;-72
2023/03/02 02:10:13;;;;;;;0.20;0.20;;;1.10;99.90;;;;;;5067895;28;20177;-72
2023/03/02 02:12:39;;;;;;;0.00;0.00;;;1.00;99.90;;;;;;5052760;28;20667;-72
2023/03/02 02:15:07;;;;;;;0.00;0.00;;;1.00;99.90;;;;;;5076671;28;20726;-72
2023/03/02 02:17:33;;;;;;;0.00;0.00;;;1.00;99.90;;;;;;5056266;28;20181;-72
2023/03/02 02:20:11;;;;;;;0.45;0.45;;;1.00;99.90;;;;;;5067886;28;20200;-72
2023/03/02 02:22:36;;;;;;;0.00;0.00;;;0.90;99.90;;;;;;5057266;28;20188;-72
2023/03/02 02:25:10;;;;;;;0.00;0.00;;;0.90;99.90;;;;;;5051692;28;20185;-72
2023/03/02 02:27:35;;;;;;;0.20;0.20;;;0.90;99.90;;;;;;5064698;28;20695;-72
2023/03/02 02:30:05;;;;;;;0.35;0.30;;;0.90;99.90;;;;;;5067017;28;20187;-72
2023/03/02 02:32:36;;;;;;;0.10;0.10;;;0.90;99.90;;;;;;5056435;28;20184;-71
2023/03/02 02:35:26;;;;;;;0.00;0.00;;;0.80;99.90;;;;;;5060435;28;20192;-72
2023/03/02 02:37:55;;;;;;;0.00;0.00;;;0.90;99.90;;;;;;5064792;28;20267;-72
2023/03/02 02:40:57;;;;;;;0.28;0.28;;;0.80;99.90;;;;;;5038770;28;20177;-72
2023/03/02 02:43:23;;;;;;;0.00;0.00;;;0.80;99.90;;;;;;5058056;28;20184;-72
2023/03/02 02:45:53;;;;;;;1.35;0.43;;;0.80;99.90;;;;;;5066227;28;20662;-72
2023/03/02 02:48:23;;;;;;;0.28;0.28;;;0.70;99.90;;;;;;5053705;28;20188;-72
2023/03/02 02:50:52;;;;;;;0.45;0.45;;;0.70;99.90;;;;;;5057952;28;20640;-72
2023/03/02 02:53:21;;;;;;;0.40;0.40;;;0.70;99.90;;;;;;5065330;28;20192;-72
2023/03/02 02:55:50;;;;;;;1.05;0.65;;;0.60;99.90;;;;;;5055731;28;20282;-72
2023/03/02 02:58:49;;;;;;;0.00;0.00;;;0.60;99.90;;;;;;5066787;28;20296;-72
2023/03/02 03:01:17;;;;;;;0.00;0.00;;;0.60;99.90;;;;;;5060168;28;20188;-72
2023/03/02 03:03:52;;;;;;;0.30;0.30;;;0.60;99.90;;;;;;5055526;28;20535;-72
2023/03/02 03:06:24;;;;;;;0.00;0.00;;;0.60;99.90;;;;;;5053241;28;20211;-72
2023/03/02 03:08:54;;;;;;;0.35;0.35;;;0.60;99.90;;;;;;5067883;28;20180;-72
2023/03/02 03:11:23;;;;;;;0.20;0.20;;;0.60;99.90;;;;;;5059602;28;20272;-72
2023/03/02 03:13:57;;;;;;;0.25;0.25;;;0.60;99.90;;;;;;5065387;28;20295;-72
2023/03/02 03:16:25;;;;;;;0.00;0.00;;;0.60;99.90;;;;;;5053864;28;20176;-71
2023/03/02 03:18:53;;;;;;;0.20;0.20;;;0.60;99.90;;;;;;5063819;28;20213;-72
2023/03/02 03:21:19;;;;;;;0.35;0.35;;;0.50;99.90;;;;;;5060222;28;20173;-72
2023/03/02 03:23:44;;;;;;;0.00;0.00;;;0.50;99.90;;;;;;5056676;28;20586;-72
2023/03/02 03:26:10;;;;;;;0.15;0.15;;;0.50;99.90;;;;;;5053533;28;20206;-71
2023/03/02 03:28:35;;;;;;;0.00;0.00;;;0.50;99.90;;;;;;5066994;28;20180;-72
2023/03/02 03:31:01;;;;;;;0.00;0.00;;;0.50;99.90;;;;;;5066450;28;20186;-71
2023/03/02 03:33:27;;;;;;;0.00;0.00;;;0.50;99.90;;;;;;5065988;28;20203;-72
2023/03/02 03:35:52;;;;;;;0.57;0.33;;;0.50;99.90;;;;;;5071217;28;20272;-72
2023/03/02 03:38:18;;;;;;;0.10;0.10;;;0.50;99.90;;;;;;5057386;28;20189;-72
2023/03/02 03:40:44;;;;;;;0.10;0.10;;;0.50;99.90;;;;;;5068958;28;20184;-71
2023/03/02 03:43:12;;;;;;;0.00;0.00;;;0.40;99.90;;;;;;5062831;28;20208;-72
2023/03/02 03:45:38;;;;;;;0.10;0.10;;;0.50;99.90;;;;;;5061813;28;20184;-71
2023/03/02 03:48:04;;;;;;;0.00;0.00;;;0.40;99.90;;;;;;5067692;28;20192;-71
2023/03/02 03:50:29;;;;;;;0.27;0.27;;;0.40;99.90;;;;;;5070188;28;20683;-71
2023/03/02 03:52:55;;;;;;;0.30;0.30;;;0.40;99.90;;;;;;5059388;28;20192;-71
2023/03/02 03:55:20;;;;;;;0.00;0.00;;;0.40;99.90;;;;;;5063442;28;20181;-71
2023/03/02 03:57:46;;;;;;;0.00;0.00;;;0.40;99.90;;;;;;5059705;28;20191;-63
2023/03/02 04:00:15;;;;;;;0.00;0.00;;;0.40;99.90;;;;;;5056582;28;20216;-65
2023/03/02 04:02:41;;;;;;;0.00;0.00;;;0.40;99.90;;;;;;5056283;28;20185;-71
2023/03/02 04:05:07;;;;;;;0.00;0.00;;;0.40;99.90;;;;;;5054006;28;20192;-71
2023/03/02 04:07:34;;;;;;;0.73;0.60;;;0.30;99.90;;;;;;5063832;28;20213;-71
2023/03/02 04:10:02;;;;;;;0.80;0.80;;;0.30;99.90;;;;;;5059261;28;20639;-71
2023/03/02 04:12:33;;;;;;;0.22;0.22;;;0.30;99.90;;;;;;5068732;28;20272;-71
2023/03/02 04:14:59;;;;;;;7.22;1.48;;;0.30;99.90;;;;;;5063412;28;20299;-70
2023/03/02 04:17:25;;;;;;;0.20;0.20;;;0.30;99.90;;;;;;5053660;28;20637;-71
2023/03/02 04:19:51;;;;;;;0.03;0.03;;;0.30;99.90;;;;;;5054946;28;20204;-71
2023/03/02 04:22:18;;;;;;;0.45;0.45;;;0.30;99.90;;;;;;5065855;28;20259;-70
2023/03/02 04:24:45;;;;;;;0.00;0.00;;;0.20;99.90;;;;;;5033670;28;20178;-70
2023/03/02 04:27:11;;;;;;;0.03;0.03;;;0.20;99.90;;;;;;5040529;28;20572;-69
2023/03/02 04:29:36;;;;;;;0.00;0.00;;;0.20;99.90;;;;;;5053962;28;20177;-67
2023/03/02 04:32:02;;;;;;;0.00;0.00;;;0.20;99.90;;;;;;5053789;28;20654;-71
2023/03/02 04:34:28;;;;;;;0.15;0.15;;;0.20;99.90;;;;;;5053603;28;20193;-67
2023/03/02 04:36:55;;;;;;;0.00;0.00;;;0.10;99.90;;;;;;5053311;28;20239;-64
2023/03/02 04:39:21;;;;;;;0.03;0.03;;;0.20;99.90;;;;;;5052473;28;20714;-66
2023/03/02 04:41:47;;;;;;;0.85;0.60;;;0.10;99.90;;;;;;5053454;28;20708;-66
2023/03/02 04:44:13;;;;;;;0.20;0.20;;;0.10;99.90;;;;;;5052980;28;20284;-70
2023/03/02 04:46:39;;;;;;;0.00;0.00;;;0.10;99.90;;;;;;5053386;28;20558;-70
2023/03/02 04:49:05;;;;;;;0.00;0.00;;;0.10;99.90;;;;;;5052206;28;20181;-65
2023/03/02 04:51:36;;;;;;;0.10;0.10;;;0.10;99.90;;;;;;5052178;28;20189;-73
2023/03/02 04:54:05;;;;;;;0.20;0.20;;;0.10;99.90;;;;;;5052543;28;20185;-67
2023/03/02 04:56:31;;;;;;;0.00;0.00;;;0.10;99.90;;;;;;5054327;28;20182;-68
2023/03/02 04:58:57;;;;;;;0.00;0.00;;;0.10;99.90;;;;;;5065758;28;20189;-71
2023/03/02 05:01:23;;;;;;;0.00;0.00;;;0.00;99.90;;;;;;5064022;28;20221;-70
2023/03/02 05:03:48;;;;;;;0.70;0.47;;;0.00;99.90;;;;;;5052785;28;20178;-71
2023/03/02 05:06:14;;;;;;;0.00;0.00;;;0.00;99.90;;;;;;5052730;28;20208;-71
2023/03/02 05:08:40;;;;;;;0.05;0.05;;;0.00;99.90;;;;;;5052996;28;20191;-72
2023/03/02 05:11:06;;;;;;;1.25;0.70;;;0.00;99.90;;;;;;5052652;28;20224;-73
2023/03/02 05:13:33;;;;;;;0.47;0.47;;;0.00;99.90;;;;;;5052163;28;20193;-73
2023/03/02 05:15:58;;;;;;;0.00;0.00;;;0.00;99.90;;;;;;5052823;28;20201;-74
2023/03/02 05:18:25;;;;;;;0.10;0.10;;;0.00;99.90;;;;;;5052823;28;20498;-74
2023/03/02 05:20:52;;;;;;;0.10;0.10;;;0.10;99.90;;;;;;5051972;28;20218;-73
2023/03/02 05:23:26;;;;;;;0.00;0.00;;;0.10;99.90;;;;;;5052462;28;20186;-72
2023/03/02 05:25:55;;;;;;;0.20;0.13;;;0.10;99.90;;;;;;5052435;28;20180;-71
2023/03/02 05:28:22;;;;;;;0.20;0.20;;;0.10;99.90;;;;;;5052656;28;20264;-72
2023/03/02 05:30:48;;;;;;;0.10;0.10;;;0.00;99.90;;;;;;5052552;28;20178;-71
2023/03/02 05:33:14;;;;;;;0.57;0.57;;;0.00;99.90;;;;;;5052543;28;20620;-71
2023/03/02 05:35:41;;;;;;;1.35;0.88;;;0.00;99.90;;;;;;5052430;28;20204;-73
2023/03/02 05:38:07;;;;;;;0.00;0.00;;;0.00;99.90;;;;;;5052381;28;20249;-72
2023/03/02 05:40:33;;;;;;;2.65;0.35;;;0.00;99.90;;;;;;5052330;28;20264;-72
2023/03/02 05:42:58;;;;;;;0.20;0.20;;;0.00;99.90;;;;;;5052377;28;20173;-73
2023/03/02 05:45:34;;;;;;;0.00;0.00;;;0.00;99.90;;;;;;5052001;28;20189;-72
2023/03/02 05:48:00;;;;;;;0.20;0.20;;;0.00;99.90;;;;;;5052263;28;20277;-72
2023/03/02 05:50:25;;;;;;;0.10;0.10;;;0.10;99.90;;;;;;5052000;28;20174;-72
2023/03/02 05:52:51;;;;;;;0.07;0.07;;;0.10;99.90;;;;;;5052158;28;20181;-73
2023/03/02 05:55:18;;;;;;;0.00;0.00;;;0.00;99.90;;;;;;5052242;28;20170;-74
2023/03/02 05:57:44;;;;;;;0.00;0.00;;;0.10;99.90;;;;;;5051864;28;20181;-73
2023/03/02 06:00:12;;;;;;;0.32;0.32;;;0.10;99.90;;;;;;5052040;28;20173;-74
2023/03/02 06:02:38;;;;;;;2.33;0.50;;;0.00;99.90;;;;;;5051882;28;20577;-74
2023/03/02 06:05:06;;;;;;;0.00;0.00;;;0.10;99.90;;;;;;5051648;28;20193;-74
2023/03/02 06:07:31;;;;;;;0.52;0.50;;;0.00;99.90;;;;;;5051652;28;20276;-74
2023/03/02 06:09:57;;;;;;;0.00;0.00;;;0.00;99.90;;;;;;5051886;28;20193;-74
2023/03/02 06:12:22;;;;;;;0.00;0.00;;;0.00;99.90;;;;;;5047849;28;20617;-73
2023/03/02 06:14:48;;;;;;;0.52;0.52;;;0.00;99.90;;;;;;5031668;28;20260;-73
2023/03/02 06:17:13;;;;;;;0.00;0.00;;;0.00;99.90;;;;;;5031868;28;20633;-74
2023/03/02 06:19:39;;;;;;;0.17;0.17;;;0.00;99.90;;;;;;5031839;28;20174;-74
2023/03/02 06:22:04;;;;;;;0.00;0.00;;;0.10;99.90;;;;;;5031670;28;20178;-74
2023/03/02 06:24:30;;;;;;;0.00;0.00;;;0.10;99.90;;;;;;5031395;28;20264;-73
2023/03/02 06:26:55;;;;;;;0.10;0.10;;;0.10;99.90;;;;;;5031364;28;20217;-74
2023/03/02 06:29:21;;;;;;;0.10;0.10;;;0.10;99.90;;;;;;5031148;28;20182;-75
2023/03/02 06:31:47;;;;;;;0.00;0.00;;;0.20;99.90;;;;;;5031228;28;20186;-74
2023/03/02 06:34:13;;;;;;;0.08;0.08;;;0.10;99.90;;;;;;5031280;28;20652;-75
2023/03/02 06:36:39;;;;;;;0.30;0.30;;;0.10;99.90;;;;;;5031071;28;20231;-73
2023/03/02 06:39:06;;;;;;;0.00;0.00;;;0.20;99.90;;;;;;5031250;28;20182;-74
2023/03/02 06:41:34;;;;;;;0.00;0.00;;;0.20;99.90;;;;;;5029784;28;20182;-73
2023/03/02 06:44:00;;;;;;;0.13;0.13;;;0.30;99.90;;;;;;5031276;28;20634;-73
2023/03/02 06:46:25;;;;;;;0.00;0.00;;;0.30;99.90;;;;;;5030957;28;20236;-73
2023/03/02 06:48:51;;;;;;;0.35;0.35;;;0.30;99.90;;;;;;5031152;28;20181;-73
2023/03/02 06:51:17;;;;;;;0.68;0.35;;;0.40;99.90;;;;;;5031164;28;20177;-73
2023/03/02 06:53:42;;;;;;;0.10;0.10;;;0.40;99.90;;;;;;5031000;28;20174;-73
2023/03/02 06:56:08;;;;;;;0.00;0.00;;;0.50;99.90;;;;;;5030966;28;20204;-74
2023/03/02 06:58:35;;;;;;;0.00;0.00;;;0.50;99.90;;;;;;5029529;28;20273;-73
2023/03/02 07:01:00;;;;;;;0.00;0.00;;;0.60;99.90;;;;;;5031078;28;20178;-71
2023/03/02 07:03:26;;;;;;;0.00;0.00;;;0.70;99.90;;;;;;5032756;28;20233;-71
2023/03/02 07:05:51;;;;;;;0.75;0.57;;;0.80;99.90;;;;;;5049844;28;20185;-71
2023/03/02 07:08:17;;;;;;;0.00;0.00;;;0.90;99.90;;;;;;5054736;28;20186;-71
2023/03/02 07:10:42;;;;;;;0.17;0.17;;;1.00;99.90;;;;;;5054494;28;20173;-71
2023/03/02 07:13:08;;;;;;;0.15;0.15;;;1.20;99.90;;;;;;5044331;28;20560;-71
2023/03/02 07:15:33;;;;;;;0.00;0.00;;;1.40;99.90;;;;;;5034425;28;20234;-71
2023/03/02 07:17:59;;;;;;;0.00;0.00;;;1.60;99.90;;;;;;5034550;28;20256;-71
2023/03/02 07:20:24;;;;;;;0.30;0.30;;;1.80;99.90;;;;;;5034546;28;20178;-71
2023/03/02 07:22:50;;;;;;;1.00;1.00;;;2.00;99.90;;;;;;5034604;28;20177;-71
2023/03/02 07:25:15;;;;;;;0.00;0.00;;;2.20;99.90;;;;;;5034613;28;20621;-71
2023/03/02 07:27:41;;;;;;;0.00;0.00;;;2.50;99.90;;;;;;5034263;28;20707;-71
2023/03/02 07:30:08;;;;;;;0.00;0.00;;;2.70;99.90;;;;;;5034545;28;20186;-71
2023/03/02 07:32:33;;;;;;;0.10;0.10;;;2.90;99.90;;;;;;5034225;28;20544;-70
2023/03/02 07:34:59;;;;;;;0.43;0.43;;;3.20;99.90;;;;;;5034448;28;20262;-70
2023/03/02 07:37:24;;;;;;;0.05;0.05;;;3.50;99.90;;;;;;5049620;28;20494;-70
2023/03/02 07:39:50;;;;;;;0.10;0.10;;;3.70;99.90;;;;;;5034306;28;20581;-71
2023/03/02 07:42:17;;;;;;;0.10;0.10;;;4.00;99.90;;;;;;5034385;28;20212;-70
2023/03/02 07:44:42;;;;;;;0.15;0.15;;;4.30;99.90;;;;;;5034210;28;20186;-70
2023/03/02 07:47:08;;;;;;;0.00;0.00;;;4.60;99.90;;;;;;5034236;28;20313;-70
2023/03/02 07:49:36;;;;;;;0.00;0.00;;;4.90;99.00;;;;;;5034751;28;20586;-70
2023/03/02 07:52:02;;;;;;;0.00;0.00;;;5.20;98.30;;;;;;5034546;28;20178;-70
2023/03/02 07:54:29;;;;;;;0.20;0.20;;;5.40;97.80;;;;;;5034332;28;20240;-70
2023/03/02 07:56:56;;;;;;;0.38;0.38;;;5.70;97.30;;;;;;5034578;28;20213;-70
2023/03/02 07:59:21;;;;;;;0.00;0.00;;;5.90;96.60;;;;;;5034310;28;20174;-70
2023/03/02 08:01:47;;;;;;;0.00;0.00;;;6.20;95.60;;;;;;5034475;28;20189;-71
2023/03/02 08:04:12;;;;;;;0.00;0.00;;;6.30;95.20;;;;;;5035783;28;20183;-71
2023/03/02 08:06:38;;;;;;;0.05;0.05;;;6.30;94.40;;;;;;5054096;28;20208;-70
2023/03/02 08:09:04;;;;;;;0.08;0.08;;;6.40;94.30;;;;;;5052817;28;20182;-71
2023/03/02 08:11:29;;;;;;;0.00;0.00;;;6.60;94.00;;;;;;5054089;28;20173;-70
2023/03/02 08:13:59;;;;;;;0.00;0.00;;;6.80;93.70;;;;;;5036604;28;20241;-71
2023/03/02 08:16:25;;;;;;;0.13;0.13;;;7.10;92.90;;;;;;5033696;28;20179;-70
2023/03/02 08:18:50;;;;;;;0.00;0.00;;;7.20;92.20;;;;;;5034117;28;20167;-71
2023/03/02 08:21:19;;;;;;;0.15;0.15;;;7.20;91.70;;;;;;5034042;28;20236;-71
2023/03/02 08:23:45;;;;;;;0.55;0.55;;;7.30;91.80;;;;;;5033830;28;20174;-71
2023/03/02 08:26:11;;;;;;;0.00;0.00;;;7.40;91.70;;;;;;5033940;28;20217;-71
2023/03/02 08:28:37;;;;;;;0.00;0.00;;;7.50;91.00;;;;;;5034371;28;20189;-71
2023/03/02 08:31:03;;;;;;;0.00;0.00;;;7.60;90.70;;;;;;5033820;28;20174;-72
2023/03/02 08:33:29;;;;;;;0.00;0.00;;;7.70;90.50;;;;;;5033504;28;20692;-72
2023/03/02 08:35:56;;;;;;;0.00;0.00;;;7.80;90.10;;;;;;5033880;28;20268;-72
2023/03/02 08:38:22;;;;;;;0.00;0.00;;;7.80;89.90;;;;;;5033673;28;20190;-72
2023/03/02 08:40:48;;;;;;;0.00;0.00;;;7.80;89.60;;;;;;5033864;28;20177;-72
2023/03/02 08:43:13;;;;;;;0.00;0.00;;;7.80;89.00;;;;;;5033794;28;20178;-72
2023/03/02 08:45:39;;;;;;;0.00;0.00;;;7.80;88.90;;;;;;5033732;28;20178;-72
2023/03/02 08:48:04;;;;;;;0.00;0.00;;;7.90;89.00;;;;;;5032290;28;20575;-72
2023/03/02 08:50:30;;;;;;;0.00;0.00;;;7.90;89.00;;;;;;5032236;28;20186;-72
2023/03/02 08:52:55;;;;;;;0.00;0.00;;;7.90;88.70;;;;;;5033745;28;20181;-72
2023/03/02 08:55:21;;;;;;;0.10;0.10;;;7.80;87.80;;;;;;5033458;28;20179;-72
2023/03/02 08:57:47;;;;;;;0.00;0.00;;;7.70;88.10;;;;;;5033451;28;20182;-72
2023/03/02 09:00:15;;;;;;;0.00;0.00;;;7.80;88.90;;;;;;5033349;28;20711;-72
2023/03/02 09:02:41;;;;;;;0.00;0.00;;;8.00;88.50;;;;;;5033299;28;20185;-71
2023/03/02 09:05:07;;;;;;;0.00;0.00;;;8.10;87.90;;;;;;5042096;28;20193;-72
2023/03/02 09:07:32;;;;;;;0.00;0.00;;;8.10;87.60;;;;;;5052912;28;20216;-71
2023/03/02 09:09:58;;;;;;;0.28;0.28;;;8.20;87.90;;;;;;5053077;28;20177;-71
2023/03/02 09:12:23;;;;;;;0.00;0.00;;;8.20;87.70;;;;;;5064307;28;20256;-71
2023/03/02 09:14:49;;;;;;;0.00;0.00;;;8.20;86.80;;;;;;5032879;28;20214;-71
2023/03/02 09:17:16;;;;;;;0.20;0.20;;;8.30;87.00;;;;;;5033061;28;20190;-72
2023/03/02 09:19:41;;;;;;;0.00;0.00;;;8.20;86.70;;;;;;5032623;28;20236;-71
2023/03/02 09:22:07;;;;;;;0.30;0.30;;;8.10;87.20;;;;;;5032738;28;20182;-71
2023/03/02 09:24:34;;;;;;;0.20;0.20;;;8.10;87.20;;;;;;5032770;28;20174;-71
2023/03/02 09:27:00;;;;;;;0.00;0.00;;;8.20;88.10;;;;;;5032479;28;20202;-71
2023/03/02 09:29:26;;;;;;;0.00;0.00;;;8.20;87.30;;;;;;5032780;28;20170;-71
2023/03/02 09:31:52;;;;;;;0.00;0.00;;;8.40;87.60;;;;;;5032669;28;20273;-71
2023/03/02 09:34:17;;;;;;;3.03;0.70;;;8.50;86.50;;;;;;5032659;28;20229;-71
2023/03/02 09:36:43;;;;;;;0.00;0.00;;;8.50;85.60;;;;;;5032487;28;20269;-71
2023/03/02 09:39:11;;;;;;;0.10;0.10;;;8.50;86.00;;;;;;5032485;28;20224;-71
2023/03/02 09:42:01;;;;;;;0.00;0.00;;;8.60;86.60;;;;;;5032600;28;20171;-72
2023/03/02 09:44:48;;;;;;;0.00;0.00;;;8.60;86.20;;;;;;5032591;28;20181;-71
2023/03/02 09:47:36;;;;;;;0.00;0.00;;;8.70;85.50;;;;;;5032386;28;20218;-70
2023/03/02 09:50:11;;;;;;;0.00;0.00;;;8.80;86.00;;;;;;5032414;28;20178;-71
2023/03/02 09:53:05;;;;;;;0.00;0.00;;;9.00;86.40;;;;;;5032229;28;20273;-71
2023/03/02 09:55:34;;;;;;;0.00;0.00;;;9.10;84.60;;;;;;5030199;28;20276;-71
2023/03/02 09:58:03;;;;;;;0.00;0.00;;;9.20;85.50;;;;;;5032220;28;20186;-71
2023/03/02 10:00:35;;;;;;;0.00;0.00;;;9.10;84.20;;;;;;5032185;28;20236;-71
2023/03/02 10:03:14;;;;;;;0.00;0.00;;;9.10;84.50;;;;;;5032113;28;20182;-72
2023/03/02 10:05:42;;;;;;;0.00;0.00;;;9.20;83.90;;;;;;5045433;28;20185;-72
2023/03/02 10:08:16;;;;;;;0.00;0.00;;;9.20;83.80;;;;;;5051889;28;20287;-71
2023/03/02 10:10:56;;;;;;;0.00;0.00;;;9.20;83.00;;;;;;5051878;28;20283;-71
2023/03/02 10:13:35;;;;;;;0.00;0.00;;;9.20;83.20;;;;;;5039764;28;20178;-70
2023/03/02 10:16:11;;;;;;;0.00;0.00;;;9.10;84.10;;;;;;5031946;28;20193;-73
2023/03/02 10:18:40;;;;;;;0.00;0.00;;;9.20;83.60;;;;;;5031844;28;20273;-71
2023/03/02 10:21:28;;;;;;;0.00;0.00;;;9.30;83.90;;;;;;5031693;28;20189;-71
2023/03/02 10:24:35;;;;;;;0.00;0.00;;;9.40;83.70;;;;;;5031829;28;20181;-72
2023/03/02 10:27:16;;;;;;;0.00;0.00;;;9.70;83.10;;;;;;5031756;28;20788;-71
2023/03/02 10:30:00;;;;;;;0.00;0.00;;;9.90;81.90;;;;;;5031635;28;20281;-71
2023/03/02 10:32:30;;;;;;;0.00;0.00;;;10.00;80.80;;;;;;5045758;28;20236;-70
2023/03/02 10:34:58;;;;;;;0.00;0.00;;;10.10;81.70;;;;;;5031811;28;20719;-71
2023/03/02 10:37:29;;;;;;;0.05;0.05;;;10.30;80.90;;;;;;5030637;28;20585;-70
2023/03/02 10:39:55;;;;;;;0.00;0.00;;;10.20;79.80;;;;;;5031860;28;20186;-71
2023/03/02 10:42:32;;;;;;;0.00;0.00;;;10.40;80.40;;;;;;5031587;28;20224;-71
2023/03/02 10:45:21;;;;;;;0.25;0.25;;;10.60;80.90;;;;;;5031645;28;20180;-71
2023/03/02 10:47:47;;;;;;;0.17;0.17;;;10.70;78.80;;;;;;5030073;28;20707;-71
2023/03/02 10:50:21;;;;;;;0.00;0.00;;;10.80;78.40;;;;;;5031559;28;20209;-71
2023/03/02 10:52:50;;;;;;;0.05;0.05;;;10.80;77.60;;;;;;5031361;28;20178;-71
2023/03/02 10:55:16;;;;;;;0.00;0.00;;;11.00;78.40;;;;;;5031589;28;20182;-71
2023/03/02 10:57:43;;;;;;;0.08;0.08;;;11.30;77.60;;;;;;5031222;28;20178;-70
2023/03/02 11:00:24;;;;;;;0.00;0.00;;;11.40;76.50;;;;;;5030163;28;20236;-71
2023/03/02 11:02:56;;;;;;;0.00;0.00;;;11.40;75.70;;;;;;5031337;28;20178;-71
2023/03/02 11:05:35;;;;;;;0.00;0.00;;;11.50;76.00;;;;;;5042108;28;20254;-71
2023/03/02 11:08:02;;;;;;;0.00;0.00;;;11.50;75.80;;;;;;5051370;28;20713;-71
2023/03/02 11:10:33;;;;;;;0.52;0.28;;;11.60;75.70;;;;;;5051308;28;20177;-70
2023/03/02 11:12:59;;;;;;;0.00;0.00;;;11.70;75.50;;;;;;5042512;28;20503;-71
2023/03/02 11:15:45;;;;;;;0.00;0.00;;;11.70;74.50;;;;;;5030958;28;20229;-70
2023/03/02 11:18:28;;;;;;;0.13;0.13;;;11.90;74.10;;;;;;5031327;28;20641;-71
2023/03/02 11:21:01;;;;;;;0.00;0.00;;;11.90;73.00;;;;;;5031267;28;20810;-72
2023/03/02 11:23:53;;;;;;;0.00;0.00;;;12.00;73.00;;;;;;5031184;28;20209;-70
2023/03/02 11:26:32;;;;;;;0.00;0.00;;;12.10;72.70;;;;;;5031232;28;20289;-71
2023/03/02 11:29:19;;;;;;;0.17;0.17;;;12.10;72.30;;;;;;5031315;28;20190;-71
2023/03/02 11:31:59;;;;;;;0.00;0.00;;;12.00;72.10;;;;;;5031068;28;20171;-71
2023/03/02 11:34:51;;;;;;;0.00;0.00;;;12.00;72.20;;;;;;5046405;28;20669;-71
2023/03/02 11:37:28;;;;;;;0.00;0.00;;;12.10;72.20;;;;;;5027107;28;20186;-71
2023/03/02 11:40:14;;;;;;;0.00;0.00;;;12.20;72.40;;;;;;5031215;28;20181;-71
2023/03/02 11:42:43;;;;;;;0.00;0.00;;;12.40;71.70;;;;;;5031094;28;20257;-71
2023/03/02 11:45:14;;;;;;;0.00;0.00;;;12.20;70.60;;;;;;5031002;28;20178;-71
2023/03/02 11:47:45;;;;;;;0.00;0.00;;;12.00;71.00;;;;;;5030945;28;20281;-70
2023/03/02 11:50:13;;;;;;;0.00;0.00;;;11.90;71.10;;;;;;5033832;28;20182;-70
2023/03/02 11:52:45;;;;;;;0.00;0.00;;;11.80;71.70;;;;;;5033281;28;20182;-71
2023/03/02 11:55:21;;;;;;;0.00;0.00;;;11.80;72.80;;;;;;5034621;28;20180;-71
2023/03/02 11:57:52;;;;;;;0.00;0.00;;;11.90;73.50;;;;;;5034411;28;20170;-71
2023/03/02 12:00:38;;;;;;;0.00;0.00;;;12.00;72.40;;;;;;5034550;28;20174;-71
2023/03/02 12:03:23;;;;;;;0.00;0.00;;;12.10;71.50;;;;;;5034419;28;20221;-71
2023/03/02 12:05:51;;;;;;;0.25;0.25;;;12.10;71.40;;;;;;5033091;28;20213;-71
2023/03/02 12:08:20;;;;;;;0.10;0.10;;;12.20;71.80;;;;;;5034242;28;20214;-71
2023/03/02 12:11:13;;;;;;;0.00;0.00;;;12.30;71.80;;;;;;5034185;28;20170;-71
2023/03/02 12:13:39;;;;;;;0.00;0.00;;;12.30;70.90;;;;;;5048108;28;20178;-71
2023/03/02 12:16:32;;;;;;;0.00;0.00;;;12.20;70.80;;;;;;5054089;28;20256;-71
2023/03/02 12:18:58;;;;;;;0.25;0.20;;;12.20;70.90;;;;;;5054242;28;20192;-71
2023/03/02 12:21:25;;;;;;;0.00;0.00;;;12.40;71.00;;;;;;5053722;28;20170;-71
2023/03/02 12:23:51;;;;;;;0.00;0.00;;;12.50;70.20;;;;;;5052881;28;20226;-71
2023/03/02 12:26:19;;;;;;;0.00;0.00;;;12.40;70.40;;;;;;5053413;28;20213;-71
2023/03/02 12:29:09;;;;;;;0.00;0.00;;;12.40;70.40;;;;;;5053447;28;20704;-71
2023/03/02 12:31:39;;;;;;;0.10;0.10;;;12.50;70.80;;;;;;5053686;28;20169;-71
2023/03/02 12:34:31;;;;;;;0.30;0.20;;;12.50;70.40;;;;;;5053633;28;20178;-71
2023/03/02 12:37:17;;;;;;;0.00;0.00;;;12.50;70.80;;;;;;5053779;28;20181;-71
2023/03/02 12:40:26;;;;;;;0.00;0.00;;;12.60;71.40;;;;;;5053385;28;20185;-71
2023/03/02 12:43:29;;;;;;;0.35;0.35;;;12.70;70.30;;;;;;5053542;28;20307;-71
2023/03/02 12:46:30;;;;;;;0.73;0.35;;;12.60;70.10;;;;;;5053608;28;20251;-71
2023/03/02 12:49:02;;;;;;;0.10;0.10;;;12.50;70.50;;;;;;5053511;28;20221;-71
2023/03/02 12:51:32;;;;;;;0.00;0.00;;;12.50;70.00;;;;;;5053333;28;20173;-71
2023/03/02 12:54:03;;;;;;;0.00;0.00;;;12.40;69.60;;;;;;5053256;28;20185;-71
2023/03/02 12:56:28;;;;;;;0.00;0.00;;;12.30;69.90;;;;;;5053206;28;20542;-71
2023/03/02 12:58:54;;;;;;;0.30;0.30;;;12.10;70.20;;;;;;5053235;28;20675;-71
2023/03/02 13:01:26;;;;;;;0.15;0.15;;;12.10;70.90;;;;;;5052365;28;20586;-71
2023/03/02 13:03:52;;;;;;;0.50;0.50;;;12.20;71.00;;;;;;5053186;28;20710;-71
2023/03/02 13:06:19;;;;;;;0.00;0.00;;;12.10;70.70;;;;;;5053041;28;20266;-71
2023/03/02 13:08:48;;;;;;;0.10;0.10;;;12.00;70.70;;;;;;5051701;28;20182;-71